createdAt,value
2023-05-05T00:00:22.412Z,83.26
2023-05-05T00:02:49.128Z,81.80
2023-05-05T00:05:15.927Z,84.07
2023-05-05T00:07:42.711Z,83.12
2023-05-05T00:10:11.104Z,84.22
2023-05-05T00:12:37.920Z,86.05
2023-05-05T00:15:05.552Z,87.42
2023-05-05T00:17:32.244Z,88.05
2023-05-05T00:19:58.902Z,88.15
2023-05-05T00:22:25.690Z,87.87
2023-05-05T00:24:52.360Z,88.68
2023-05-05T00:27:20.392Z,88.83
2023-05-05T00:29:47.082Z,88.37
2023-05-05T00:32:13.773Z,88.67
2023-05-05T00:34:40.410Z,88.90
2023-05-05T00:37:07.108Z,89.10
2023-05-05T00:39:33.796Z,90.82
2023-05-05T00:42:00.429Z,89.96
2023-05-05T00:44:35.850Z,89.75
2023-05-05T00:47:02.554Z,88.72
2023-05-05T00:49:29.253Z,90.42
2023-05-05T00:51:55.990Z,89.41
2023-05-05T00:54:22.708Z,90.64
2023-05-05T00:56:49.882Z,90.11
2023-05-05T00:59:16.627Z,89.69
2023-05-05T01:01:45.095Z,90.88
2023-05-05T01:04:11.773Z,90.87
2023-05-05T01:06:42.781Z,90.86
2023-05-05T01:09:19.931Z,91.25
2023-05-05T01:11:49.417Z,91.13
2023-05-05T01:14:17.235Z,91.15
2023-05-05T01:16:52.291Z,92.03
2023-05-05T01:19:31.095Z,92.02
2023-05-05T01:22:00.464Z,91.88
2023-05-05T01:24:42.661Z,91.55
2023-05-05T01:27:26.387Z,91.29
2023-05-05T01:30:28.616Z,91.46
2023-05-05T01:32:58.390Z,92.64
2023-05-05T01:35:28.422Z,91.82
2023-05-05T01:37:57.789Z,91.93
2023-05-05T01:40:26.293Z,92.55
2023-05-05T01:42:52.966Z,92.49
2023-05-05T01:45:20.619Z,91.23
2023-05-05T01:47:47.372Z,91.96
2023-05-05T01:50:15.466Z,91.90
2023-05-05T01:52:42.162Z,91.98
2023-05-05T01:55:09.144Z,91.96
2023-05-05T01:57:35.900Z,91.92
2023-05-05T02:00:02.600Z,92.72
2023-05-05T02:02:29.328Z,92.53
2023-05-05T02:04:56.086Z,92.39
2023-05-05T02:07:24.176Z,93.17
2023-05-05T02:09:51.195Z,92.62
2023-05-05T02:12:17.973Z,93.72
2023-05-05T02:14:44.653Z,93.83
2023-05-05T02:17:11.429Z,92.97
2023-05-05T02:19:38.997Z,92.56
2023-05-05T02:22:05.818Z,93.53
2023-05-05T02:24:33.948Z,93.55
2023-05-05T02:27:00.650Z,92.28
2023-05-05T02:29:29.190Z,92.97
2023-05-05T02:31:58.103Z,93.50
2023-05-05T02:34:26.189Z,93.81
2023-05-05T02:36:53.679Z,93.80
2023-05-05T02:39:21.922Z,93.94
2023-05-05T02:41:49.944Z,94.21
2023-05-05T02:44:16.681Z,93.46
2023-05-05T02:46:43.456Z,94.67
2023-05-05T02:49:10.204Z,94.58
2023-05-05T02:51:36.907Z,93.99
2023-05-05T02:54:04.014Z,94.15
2023-05-05T02:56:34.432Z,94.29
2023-05-05T02:59:08.798Z,94.21
2023-05-05T03:01:39.639Z,94.78
2023-05-05T03:04:07.450Z,95.08
2023-05-05T03:06:36.864Z,94.58
2023-05-05T03:09:09.689Z,94.58
2023-05-05T03:11:38.460Z,94.65
2023-05-05T03:14:08.418Z,94.41
2023-05-05T03:16:35.593Z,95.62
2023-05-05T03:19:03.001Z,94.84
2023-05-05T03:21:29.798Z,94.18
2023-05-05T03:23:57.386Z,93.64
2023-05-05T03:26:24.141Z,94.55
2023-05-05T03:28:50.835Z,94.00
2023-05-05T03:31:18.956Z,93.82
2023-05-05T03:33:45.724Z,94.52
2023-05-05T03:36:12.396Z,93.88
2023-05-05T03:38:39.108Z,94.11
2023-05-05T03:41:05.910Z,93.42
2023-05-05T03:43:32.588Z,93.48
2023-05-05T03:45:59.299Z,93.45
2023-05-05T03:48:27.549Z,92.89
2023-05-05T03:50:54.250Z,92.17
2023-05-05T03:53:20.932Z,91.86
2023-05-05T03:55:47.856Z,91.62
2023-05-05T03:58:14.535Z,90.72
2023-05-05T04:00:41.191Z,89.24
2023-05-05T04:03:08.032Z,88.92
2023-05-05T04:05:36.292Z,88.15
2023-05-05T04:08:03.098Z,87.71
2023-05-05T04:10:29.833Z,86.35
2023-05-05T04:12:56.692Z,85.25
2023-05-05T04:15:23.655Z,83.62
2023-05-05T04:17:50.439Z,84.38
2023-05-05T04:20:17.371Z,82.89
2023-05-05T04:22:45.410Z,83.61
2023-05-05T04:25:12.203Z,81.69
2023-05-05T04:27:38.893Z,79.30
2023-05-05T04:30:06.740Z,81.30
2023-05-05T04:32:33.629Z,81.29
2023-05-05T04:35:00.373Z,82.90
2023-05-05T04:37:27.106Z,81.78
2023-05-05T04:39:55.192Z,81.28
2023-05-05T04:42:21.853Z,80.24
2023-05-05T04:44:48.521Z,80.21
2023-05-05T04:47:15.332Z,79.36
2023-05-05T04:49:42.007Z,76.38
2023-05-05T04:52:08.675Z,74.73
2023-05-05T04:54:35.740Z,71.49
2023-05-05T04:57:03.876Z,74.39
2023-05-05T04:59:30.559Z,71.55
2023-05-05T05:01:57.433Z,69.70
2023-05-05T05:04:24.147Z,70.46
2023-05-05T05:06:50.893Z,68.32
2023-05-05T05:09:17.881Z,66.09
2023-05-05T05:11:44.552Z,67.57
2023-05-05T05:14:12.608Z,65.86
2023-05-05T05:16:39.689Z,65.73
2023-05-05T05:19:06.441Z,65.32
2023-05-05T05:21:33.159Z,67.84
2023-05-05T05:23:59.862Z,63.03
2023-05-05T05:26:26.552Z,59.32
2023-05-05T05:28:53.248Z,58.06
2023-05-05T05:31:21.666Z,54.15
2023-05-05T05:33:48.347Z,54.12
2023-05-05T05:36:15.030Z,52.80
2023-05-05T05:38:41.763Z,51.99
2023-05-05T05:41:08.426Z,48.16
2023-05-05T05:43:35.075Z,51.24
2023-05-05T05:46:01.893Z,50.11
2023-05-05T05:48:30.064Z,53.14
2023-05-05T05:50:56.736Z,52.50
2023-05-05T05:53:23.471Z,51.32
2023-05-05T05:55:50.164Z,51.81
2023-05-05T05:58:16.806Z,55.00
2023-05-05T06:00:43.516Z,53.06
2023-05-05T06:03:10.251Z,52.75
2023-05-05T06:05:38.408Z,54.15
2023-05-05T06:08:05.233Z,54.82
2023-05-05T06:10:32.154Z,53.70
2023-05-05T06:12:59.072Z,52.86
2023-05-05T06:15:25.963Z,53.43
2023-05-05T06:17:52.699Z,51.36
2023-05-05T06:20:19.425Z,52.46
2023-05-05T06:22:47.722Z,52.71
2023-05-05T06:25:14.595Z,51.93
2023-05-05T06:27:41.322Z,49.64
2023-05-05T06:30:09.086Z,50.32
2023-05-05T06:32:36.029Z,50.32
2023-05-05T06:35:02.803Z,50.62
2023-05-05T06:37:29.567Z,53.06
2023-05-05T06:39:57.633Z,51.24
2023-05-05T06:42:24.298Z,48.39
2023-05-05T06:44:51.205Z,52.61
2023-05-05T06:47:18.022Z,51.81
2023-05-05T06:49:44.708Z,52.15
2023-05-05T06:52:11.433Z,50.64
2023-05-05T06:54:38.243Z,50.81
2023-05-05T06:57:06.983Z,48.01
2023-05-05T06:59:33.776Z,46.40
2023-05-05T07:02:00.463Z,46.89
2023-05-05T07:04:27.139Z,49.03
2023-05-05T07:06:53.858Z,48.61
2023-05-05T07:09:20.554Z,48.13
2023-05-05T07:11:47.351Z,49.15
2023-05-05T07:14:15.474Z,45.72
2023-05-05T07:16:42.207Z,49.09
2023-05-05T07:19:09.003Z,42.50
2023-05-05T07:21:35.754Z,41.12
2023-05-05T07:24:02.616Z,42.70
2023-05-05T07:26:29.283Z,36.47
2023-05-05T07:28:56.061Z,43.88
2023-05-05T07:31:24.140Z,44.94
2023-05-05T07:33:50.888Z,40.99
2023-05-05T07:36:17.647Z,38.99
2023-05-05T07:38:44.366Z,40.35
2023-05-05T07:41:11.026Z,38.43
2023-05-05T07:43:39.340Z,41.70
2023-05-05T07:46:06.450Z,41.00
2023-05-05T07:48:34.552Z,38.81
2023-05-05T07:51:01.256Z,41.14
2023-05-05T07:53:27.946Z,40.90
2023-05-05T07:55:54.640Z,38.52
2023-05-05T07:58:21.419Z,36.57
2023-05-05T08:00:48.141Z,34.57
2023-05-05T08:03:14.848Z,31.24
2023-05-05T08:05:42.987Z,31.43
2023-05-05T08:08:09.636Z,36.72
2023-05-05T08:10:36.303Z,37.21
2023-05-05T08:13:03.095Z,32.56
2023-05-05T08:15:29.805Z,30.65
2023-05-05T08:17:56.527Z,31.00
2023-05-05T08:20:27.581Z,30.52
2023-05-05T08:22:55.618Z,31.75
2023-05-05T08:25:22.357Z,33.54
2023-05-05T08:27:49.214Z,35.98
2023-05-05T08:30:16.054Z,34.00
2023-05-05T08:32:42.788Z,30.16
2023-05-05T08:35:12.517Z,37.35
2023-05-05T08:37:39.507Z,32.50
2023-05-05T08:40:09.914Z,29.19
2023-05-05T08:42:38.772Z,31.11
2023-05-05T08:45:07.373Z,29.75
2023-05-05T08:47:34.616Z,25.34
2023-05-05T08:50:01.333Z,25.87
2023-05-05T08:52:29.467Z,26.00
2023-05-05T08:54:57.686Z,24.79
2023-05-05T08:57:29.195Z,25.78
2023-05-05T08:59:56.033Z,26.55
2023-05-05T09:02:24.151Z,25.95
2023-05-05T09:04:51.746Z,23.30
2023-05-05T09:07:18.572Z,23.24
2023-05-05T09:09:45.312Z,28.79
2023-05-05T09:12:12.025Z,25.70
2023-05-05T09:14:40.104Z,27.82
2023-05-05T09:17:06.956Z,24.89
2023-05-05T09:19:33.761Z,25.25
2023-05-05T09:22:00.447Z,29.81
2023-05-05T09:24:27.202Z,30.76
2023-05-05T09:26:53.958Z,27.54
2023-05-05T09:29:20.683Z,31.11
2023-05-05T09:32:01.196Z,27.24
2023-05-05T09:34:27.888Z,33.65
2023-05-05T09:36:54.613Z,32.30
2023-05-05T09:39:21.297Z,26.61
2023-05-05T09:41:50.748Z,28.53
2023-05-05T09:44:17.507Z,30.22
2023-05-05T09:46:49.830Z,29.15
2023-05-05T09:49:18.741Z,25.87
2023-05-05T09:51:45.530Z,26.68
2023-05-05T09:54:22.405Z,28.68
2023-05-05T09:56:49.080Z,27.60
2023-05-05T09:59:15.782Z,27.88
2023-05-05T10:01:42.577Z,29.29
2023-05-05T10:04:23.638Z,27.78
2023-05-05T10:06:50.370Z,23.97
2023-05-05T10:09:17.057Z,25.74
2023-05-05T10:11:45.311Z,26.39
2023-05-05T10:14:13.023Z,27.35
2023-05-05T10:16:39.965Z,31.94
2023-05-05T10:19:06.696Z,26.51
2023-05-05T10:21:35.851Z,27.07
2023-05-05T10:24:06.907Z,24.39
2023-05-05T10:26:34.241Z,25.41
2023-05-05T10:29:00.979Z,28.39
2023-05-05T10:31:29.966Z,26.06
2023-05-05T10:34:00.325Z,25.33
2023-05-05T10:36:27.204Z,24.02
2023-05-05T10:38:56.495Z,23.28
2023-05-05T10:41:23.174Z,23.63
2023-05-05T10:43:50.026Z,23.10
2023-05-05T10:46:16.781Z,24.62
2023-05-05T10:48:46.925Z,25.80
2023-05-05T10:51:30.958Z,25.86
2023-05-05T10:54:07.718Z,21.43
2023-05-05T10:56:35.065Z,22.75
2023-05-05T10:59:01.746Z,21.92
2023-05-05T11:01:32.111Z,24.41
2023-05-05T11:04:18.451Z,25.65
2023-05-05T11:07:21.224Z,22.83
2023-05-05T11:09:56.521Z,20.15
2023-05-05T11:12:23.306Z,18.91
2023-05-05T11:15:23.072Z,21.30
2023-05-05T11:17:49.938Z,21.30
2023-05-05T11:20:16.690Z,21.13
2023-05-05T11:23:22.301Z,22.30
2023-05-05T11:25:50.542Z,24.40
2023-05-05T11:28:17.777Z,23.27
2023-05-05T11:31:18.328Z,23.04
2023-05-05T11:33:45.164Z,24.18
2023-05-05T11:36:12.338Z,27.25
2023-05-05T11:38:44.241Z,24.31
2023-05-05T11:41:13.340Z,21.90
2023-05-05T11:43:40.237Z,26.64
2023-05-05T11:46:10.239Z,29.20
2023-05-05T11:48:44.158Z,28.06
2023-05-05T11:51:11.652Z,29.51
2023-05-05T11:53:41.345Z,30.16
2023-05-05T11:56:08.654Z,30.89
2023-05-05T11:58:37.425Z,31.04
2023-05-05T12:01:06.956Z,29.40
2023-05-05T12:03:36.694Z,33.24
2023-05-05T12:06:03.844Z,30.25
2023-05-05T12:08:35.723Z,29.69
2023-05-05T12:11:02.875Z,33.02
2023-05-05T12:13:29.593Z,25.55
2023-05-05T12:16:07.675Z,28.41
2023-05-05T12:18:34.493Z,24.66
2023-05-05T12:21:01.308Z,22.33
2023-05-05T12:23:27.997Z,25.57
2023-05-05T12:25:54.754Z,25.72
2023-05-05T12:28:21.466Z,25.47
2023-05-05T12:30:57.282Z,26.80
2023-05-05T12:33:24.017Z,30.08
2023-05-05T12:35:50.875Z,27.98
2023-05-05T12:38:17.631Z,29.05
2023-05-05T12:40:45.545Z,32.75
2023-05-05T12:43:27.555Z,33.22
2023-05-05T12:46:09.693Z,29.63
2023-05-05T12:48:36.950Z,27.10
2023-05-05T12:51:17.542Z,25.64
2023-05-05T12:53:44.411Z,24.87
2023-05-05T12:56:33.528Z,23.40
2023-05-05T12:59:00.885Z,20.67
2023-05-05T13:01:29.102Z,23.39
2023-05-05T13:04:08.977Z,23.81
2023-05-05T13:06:35.661Z,29.16
2023-05-05T13:09:02.384Z,30.97
2023-05-05T13:11:29.163Z,29.16
2023-05-05T13:13:55.797Z,31.97
2023-05-05T13:16:22.626Z,33.11
2023-05-05T13:18:50.937Z,32.66
2023-05-05T13:21:17.626Z,32.16
2023-05-05T13:23:44.467Z,32.38
2023-05-05T13:26:11.340Z,29.86
2023-05-05T13:28:38.042Z,33.80
2023-05-05T13:31:04.842Z,35.31
2023-05-05T13:33:33.116Z,29.89
2023-05-05T13:36:01.341Z,28.15
2023-05-05T13:38:27.990Z,27.37
2023-05-05T13:40:54.714Z,30.70
2023-05-05T13:43:21.463Z,31.18
2023-05-05T13:45:48.155Z,27.39
2023-05-05T13:48:15.001Z,26.56
2023-05-05T13:50:41.764Z,25.63
2023-05-05T13:53:09.882Z,26.89
2023-05-05T13:55:36.668Z,26.21
2023-05-05T13:58:04.667Z,27.28
2023-05-05T14:00:31.481Z,28.43
2023-05-05T14:02:58.672Z,28.21
2023-05-05T14:05:25.382Z,28.65
2023-05-05T14:07:52.062Z,27.69
2023-05-05T14:10:20.136Z,24.69
2023-05-05T14:12:46.821Z,25.76
2023-05-05T14:15:13.529Z,25.83
2023-05-05T14:17:40.257Z,25.71
2023-05-05T14:20:07.968Z,26.70
2023-05-05T14:22:34.635Z,26.77
2023-05-05T14:25:01.432Z,26.08
2023-05-05T14:27:29.460Z,26.17
2023-05-05T14:29:56.140Z,26.97
2023-05-05T14:32:22.939Z,26.08
2023-05-05T14:34:50.546Z,25.02
2023-05-05T14:37:17.364Z,27.23
2023-05-05T14:39:44.073Z,27.14
2023-05-05T14:42:10.747Z,26.02
2023-05-05T14:44:38.786Z,26.51
2023-05-05T14:47:05.542Z,27.73
2023-05-05T14:49:32.318Z,27.02
2023-05-05T14:51:59.034Z,25.16
2023-05-05T14:54:28.886Z,26.94
2023-05-05T14:56:55.875Z,29.04
2023-05-05T14:59:22.675Z,28.75
2023-05-05T15:01:53.656Z,27.66
2023-05-05T15:04:20.390Z,28.96
2023-05-05T15:06:47.072Z,29.70
2023-05-05T15:09:13.953Z,29.82
2023-05-05T15:11:40.612Z,28.08
2023-05-05T15:14:07.470Z,26.43
2023-05-05T15:16:35.327Z,26.02
2023-05-05T15:19:03.765Z,30.86
2023-05-05T15:21:30.544Z,30.45
2023-05-05T15:23:57.233Z,31.83
2023-05-05T15:26:23.928Z,30.60
2023-05-05T15:28:50.573Z,36.83
2023-05-05T15:31:17.337Z,36.57
2023-05-05T15:33:44.079Z,34.79
2023-05-05T15:36:12.666Z,35.80
2023-05-05T15:38:41.127Z,35.45
2023-05-05T15:41:07.787Z,35.37
2023-05-05T15:43:34.463Z,33.07
2023-05-05T15:46:01.183Z,32.53
2023-05-05T15:48:28.293Z,33.28
2023-05-05T15:50:54.980Z,34.87
2023-05-05T15:53:23.055Z,34.02
2023-05-05T15:55:49.754Z,34.51
2023-05-05T15:58:16.423Z,34.17
2023-05-05T16:00:43.112Z,34.66
2023-05-05T16:03:09.824Z,32.94
2023-05-05T16:05:36.488Z,34.16
2023-05-05T16:08:03.353Z,33.77
2023-05-05T16:10:31.386Z,33.90
2023-05-05T16:12:58.102Z,31.90
2023-05-05T16:15:24.962Z,35.20
2023-05-05T16:17:51.682Z,32.16
2023-05-05T16:20:18.453Z,34.06
2023-05-05T16:22:45.154Z,32.92
2023-05-05T16:25:11.877Z,34.86
2023-05-05T16:27:39.997Z,32.38
2023-05-05T16:30:08.228Z,34.21
2023-05-05T16:32:34.906Z,34.98
2023-05-05T16:35:01.596Z,37.51
2023-05-05T16:37:28.393Z,36.87
2023-05-05T16:39:55.171Z,39.80
2023-05-05T16:42:21.873Z,41.02
2023-05-05T16:44:49.982Z,41.30
2023-05-05T16:47:16.648Z,43.59
2023-05-05T16:49:43.495Z,43.76
2023-05-05T16:52:10.249Z,44.89
2023-05-05T16:54:36.923Z,45.46
2023-05-05T16:57:03.758Z,46.48
2023-05-05T16:59:31.603Z,46.92
2023-05-05T17:01:59.885Z,46.68
2023-05-05T17:04:26.636Z,46.45
2023-05-05T17:06:53.323Z,46.62
2023-05-05T17:09:20.006Z,47.09
2023-05-05T17:11:46.708Z,47.43
2023-05-05T17:14:13.495Z,47.90
2023-05-05T17:16:40.167Z,48.11
2023-05-05T17:19:08.290Z,49.18
2023-05-05T17:21:35.120Z,49.31
2023-05-05T17:24:01.782Z,50.02
2023-05-05T17:26:28.473Z,50.27
2023-05-05T17:28:55.187Z,51.12
2023-05-05T17:31:21.918Z,52.42
2023-05-05T17:33:48.725Z,52.22
2023-05-05T17:36:16.847Z,53.06
2023-05-05T17:38:43.502Z,53.52
2023-05-05T17:41:10.138Z,54.10
2023-05-05T17:43:36.810Z,54.42
2023-05-05T17:46:03.512Z,54.48
2023-05-05T17:48:30.191Z,55.14
2023-05-05T17:50:56.904Z,55.41
2023-05-05T17:53:25.062Z,55.48
2023-05-05T17:55:51.751Z,56.31
2023-05-05T17:58:18.470Z,56.60
2023-05-05T18:00:45.177Z,58.07
2023-05-05T18:03:11.999Z,58.06
2023-05-05T18:05:38.806Z,58.50
2023-05-05T18:08:05.791Z,59.06
2023-05-05T18:10:33.907Z,58.67
2023-05-05T18:13:00.602Z,59.81
2023-05-05T18:15:27.529Z,61.26
2023-05-05T18:17:54.222Z,61.93
2023-05-05T18:20:20.930Z,63.33
2023-05-05T18:22:48.376Z,63.12
2023-05-05T18:25:15.022Z,63.65
2023-05-05T18:27:43.264Z,64.95
2023-05-05T18:30:10.524Z,65.80
2023-05-05T18:32:37.291Z,69.02
2023-05-05T18:35:04.708Z,70.92
2023-05-05T18:37:31.419Z,72.15
2023-05-05T18:39:58.081Z,71.86
2023-05-05T18:42:24.830Z,71.41
2023-05-05T18:44:52.895Z,71.86
2023-05-05T18:47:19.536Z,72.85
2023-05-05T18:49:46.294Z,72.43
2023-05-05T18:52:12.950Z,73.54
2023-05-05T18:54:39.636Z,73.90
2023-05-05T18:57:06.377Z,75.82
2023-05-05T18:59:33.033Z,76.05
2023-05-05T19:02:01.111Z,75.78
2023-05-05T19:04:31.822Z,74.15
2023-05-05T19:06:58.681Z,75.85
2023-05-05T19:09:25.412Z,77.23
2023-05-05T19:11:52.137Z,79.85
2023-05-05T19:14:18.884Z,78.34
2023-05-05T19:16:45.673Z,79.91
2023-05-05T19:19:13.974Z,80.31
2023-05-05T19:21:40.826Z,80.56
2023-05-05T19:24:08.184Z,80.38
2023-05-05T19:26:34.880Z,81.26
2023-05-05T19:29:01.544Z,81.30
2023-05-05T19:31:28.291Z,81.69
2023-05-05T19:33:59.154Z,82.03
2023-05-05T19:36:27.244Z,81.71
2023-05-05T19:38:54.165Z,82.69
2023-05-05T19:41:20.932Z,82.63
2023-05-05T19:43:47.630Z,84.06
2023-05-05T19:46:14.505Z,84.53
2023-05-05T19:48:41.386Z,84.35
2023-05-05T19:51:08.079Z,85.66
2023-05-05T19:53:36.142Z,86.88
2023-05-05T19:56:02.925Z,85.12
2023-05-05T19:58:29.619Z,85.39
2023-05-05T20:00:56.279Z,85.87
2023-05-05T20:03:23.084Z,87.20
2023-05-05T20:05:49.826Z,87.74
2023-05-05T20:08:16.496Z,86.83
2023-05-05T20:10:45.095Z,87.62
2023-05-05T20:13:11.808Z,86.55
2023-05-05T20:15:38.530Z,87.33
2023-05-05T20:18:05.451Z,87.61
2023-05-05T20:20:32.178Z,87.23
2023-05-05T20:22:58.851Z,89.55
2023-05-05T20:25:25.652Z,87.71
2023-05-05T20:27:53.741Z,87.14
2023-05-05T20:30:20.464Z,88.51
2023-05-05T20:32:47.244Z,89.11
2023-05-05T20:35:13.959Z,87.76
2023-05-05T20:37:40.797Z,87.97
2023-05-05T20:40:09.160Z,88.80
2023-05-05T20:42:36.075Z,87.51
2023-05-05T20:45:05.095Z,86.76
2023-05-05T20:47:33.220Z,87.24
2023-05-05T20:49:59.898Z,87.62
2023-05-05T20:52:26.548Z,88.92
2023-05-05T20:54:53.261Z,90.50
2023-05-05T20:57:19.983Z,89.79
2023-05-05T20:59:46.744Z,89.28
2023-05-05T21:02:15.049Z,89.26
2023-05-05T21:04:41.902Z,87.39
2023-05-05T21:07:08.692Z,87.98
2023-05-05T21:09:35.473Z,89.41
2023-05-05T21:12:02.164Z,89.38
2023-05-05T21:14:28.944Z,89.21
2023-05-05T21:16:55.727Z,89.42
2023-05-05T21:19:23.940Z,89.96
2023-05-05T21:21:50.627Z,89.61
2023-05-05T21:24:17.354Z,90.44
2023-05-05T21:26:44.049Z,89.57
2023-05-05T21:29:10.962Z,89.74
2023-05-05T21:31:37.740Z,89.40
2023-05-05T21:34:04.499Z,89.53
2023-05-05T21:36:32.625Z,89.09
2023-05-05T21:39:00.505Z,89.52
2023-05-05T21:41:27.319Z,88.69
2023-05-05T21:43:54.037Z,90.89
2023-05-05T21:46:20.942Z,90.25
2023-05-05T21:48:47.741Z,90.53
2023-05-05T21:51:14.505Z,90.53
2023-05-05T21:53:42.622Z,91.15
2023-05-05T21:56:09.387Z,90.35
2023-05-05T21:58:36.122Z,91.13
2023-05-05T22:01:02.853Z,90.22
2023-05-05T22:03:29.623Z,91.31
2023-05-05T22:05:56.577Z,90.96
2023-05-05T22:08:23.344Z,91.61
2023-05-05T22:10:51.763Z,92.02
2023-05-05T22:13:18.615Z,91.79
2023-05-05T22:15:47.485Z,91.87
2023-05-05T22:18:14.685Z,92.16
2023-05-05T22:20:41.400Z,91.75
2023-05-05T22:23:08.114Z,92.20
2023-05-05T22:25:35.124Z,93.17
2023-05-05T22:28:03.434Z,93.20
2023-05-05T22:30:30.160Z,92.16
2023-05-05T22:32:56.859Z,92.90
2023-05-05T22:35:23.551Z,93.28
2023-05-05T22:37:50.342Z,92.81
2023-05-05T22:40:17.270Z,92.61
2023-05-05T22:42:43.956Z,91.96
2023-05-05T22:45:12.777Z,92.29
2023-05-05T22:47:39.482Z,92.49
2023-05-05T22:50:07.465Z,92.19
2023-05-05T22:52:34.401Z,91.94
2023-05-05T22:55:01.120Z,93.42
2023-05-05T22:57:27.829Z,92.27
2023-05-05T22:59:54.585Z,92.96
2023-05-05T23:02:22.781Z,92.28
2023-05-05T23:04:49.647Z,93.50
2023-05-05T23:07:16.444Z,93.55
2023-05-05T23:09:43.104Z,92.59
2023-05-05T23:12:09.765Z,91.78
2023-05-05T23:14:36.514Z,94.13
2023-05-05T23:17:03.253Z,92.61
2023-05-05T23:19:31.479Z,93.54
2023-05-05T23:21:58.393Z,93.09
2023-05-05T23:24:25.136Z,92.88
2023-05-05T23:26:51.832Z,93.47
2023-05-05T23:29:18.618Z,94.37
2023-05-05T23:31:45.375Z,93.72
2023-05-05T23:34:12.188Z,95.42
2023-05-05T23:36:40.237Z,94.49
2023-05-05T23:39:06.906Z,95.09
2023-05-05T23:41:33.591Z,95.18
2023-05-05T23:44:00.271Z,94.62
2023-05-05T23:46:27.020Z,94.97
2023-05-05T23:48:53.729Z,95.59
2023-05-05T23:51:20.429Z,95.23
2023-05-05T23:53:48.487Z,95.33
2023-05-05T23:56:15.179Z,94.41
2023-05-05T23:58:41.995Z,95.08
